createdAt,value
2023-01-05T00:01:59.919Z,14.05
2023-01-05T00:04:30.616Z,13.15
2023-01-05T00:07:01.624Z,13.65
2023-01-05T00:09:32.275Z,13.94
2023-01-05T00:12:20.267Z,13.69
2023-01-05T00:15:08.749Z,13.25
2023-01-05T00:17:56.778Z,14.15
2023-01-05T00:20:47.528Z,12.86
2023-01-05T00:23:18.521Z,13.86
2023-01-05T00:25:49.459Z,13.38
2023-01-05T00:28:20.192Z,12.84
2023-01-05T00:30:51.027Z,13.78
2023-01-05T00:33:21.763Z,14.49
2023-01-05T00:35:52.941Z,13.28
2023-01-05T00:38:23.755Z,13.05
2023-01-05T00:40:55.719Z,14.29
2023-01-05T00:43:26.641Z,13.57
2023-01-05T00:45:57.584Z,13.26
2023-01-05T00:48:28.206Z,13.39
2023-01-05T00:50:58.941Z,14.71
2023-01-05T00:53:29.781Z,13.15
2023-01-05T00:56:00.990Z,13.13
2023-01-05T00:58:32.073Z,13.95
2023-01-05T01:01:03.460Z,14.04
2023-01-05T01:03:34.309Z,12.88
2023-01-05T01:06:05.685Z,13.82
2023-01-05T01:08:36.660Z,14.22
2023-01-05T01:11:09.330Z,12.89
2023-01-05T01:13:40.182Z,13.65
2023-01-05T01:16:11.880Z,13.50
2023-01-05T01:18:44.277Z,13.17
2023-01-05T01:21:14.903Z,14.20
2023-01-05T01:23:45.803Z,13.77
2023-01-05T01:26:16.580Z,13.16
2023-01-05T01:28:50.013Z,13.87
2023-01-05T01:31:21.386Z,14.11
2023-01-05T01:33:52.252Z,13.05
2023-01-05T01:36:23.092Z,14.04
2023-01-05T01:38:54.202Z,14.35
2023-01-05T01:41:24.972Z,13.07
2023-01-05T01:43:56.516Z,13.96
2023-01-05T01:46:29.428Z,13.81
2023-01-05T01:49:02.507Z,12.93
2023-01-05T01:51:34.559Z,14.31
2023-01-05T01:54:08.171Z,14.12
2023-01-05T01:56:40.893Z,13.14
2023-01-05T01:59:12.004Z,14.41
2023-01-05T02:01:42.828Z,13.62
2023-01-05T02:04:13.929Z,13.52
2023-01-05T02:06:44.881Z,14.34
2023-01-05T02:09:16.035Z,13.64
2023-01-05T02:11:52.176Z,13.44
2023-01-05T02:14:27.769Z,14.25
2023-01-05T02:17:06.258Z,13.65
2023-01-05T02:19:53.452Z,13.46
2023-01-05T02:22:53.766Z,14.74
2023-01-05T02:25:33.679Z,13.12
2023-01-05T02:28:11.412Z,14.12
2023-01-05T02:30:54.800Z,13.89
2023-01-05T02:33:29.567Z,13.15
2023-01-05T02:36:03.644Z,13.93
2023-01-05T02:38:39.374Z,14.56
2023-01-05T02:41:13.316Z,13.43
2023-01-05T02:43:46.418Z,13.82
2023-01-05T02:46:17.502Z,13.95
2023-01-05T02:48:49.903Z,13.52
2023-01-05T02:51:24.831Z,14.55
2023-01-05T02:54:00.913Z,13.78
2023-01-05T02:56:33.236Z,13.51
2023-01-05T02:59:06.648Z,14.78
2023-01-05T03:01:39.298Z,13.98
2023-01-05T03:04:13.506Z,14.07
2023-01-05T03:06:48.228Z,14.64
2023-01-05T03:09:26.027Z,14.65
2023-01-05T03:12:17.681Z,14.85
2023-01-05T03:14:49.493Z,13.64
2023-01-05T03:17:23.757Z,14.54
2023-01-05T03:19:55.304Z,14.49
2023-01-05T03:22:46.319Z,13.60
2023-01-05T03:25:36.705Z,14.46
2023-01-05T03:28:27.384Z,13.91
2023-01-05T03:31:17.300Z,14.52
2023-01-05T03:34:10.045Z,13.78
2023-01-05T03:36:45.995Z,13.67
2023-01-05T03:39:17.668Z,14.38
2023-01-05T03:41:50.289Z,14.44
2023-01-05T03:44:23.088Z,13.84
2023-01-05T03:46:54.172Z,13.21
2023-01-05T03:49:25.128Z,14.63
2023-01-05T03:51:56.122Z,14.25
2023-01-05T03:54:27.475Z,13.84
2023-01-05T03:56:58.004Z,14.80
2023-01-05T03:59:29.044Z,13.65
2023-01-05T04:02:02.684Z,14.39
2023-01-05T04:04:33.604Z,13.99
2023-01-05T04:07:04.924Z,13.32
2023-01-05T04:09:37.361Z,13.92
2023-01-05T04:12:08.846Z,14.88
2023-01-05T04:14:42.869Z,14.74
2023-01-05T04:17:13.499Z,13.55
2023-01-05T04:19:44.936Z,14.51
2023-01-05T04:22:18.097Z,13.98
2023-01-05T04:24:51.130Z,13.97
2023-01-05T04:27:22.184Z,14.33
2023-01-05T04:29:53.749Z,14.89
2023-01-05T04:32:24.747Z,13.49
2023-01-05T04:34:56.144Z,13.03
2023-01-05T04:37:27.237Z,13.57
2023-01-05T04:39:58.737Z,14.89
2023-01-05T04:42:29.635Z,13.58
2023-01-05T04:45:00.764Z,13.42
2023-01-05T04:47:31.274Z,14.56
2023-01-05T04:50:03.465Z,13.94
2023-01-05T04:52:33.929Z,14.18
2023-01-05T04:55:06.706Z,14.99
2023-01-05T04:57:37.652Z,13.88
2023-01-05T05:00:11.447Z,14.14
2023-01-05T05:06:35.842Z,14.48
2023-01-05T05:09:06.924Z,14.68
2023-01-05T05:11:39.553Z,14.89
2023-01-05T05:14:11.476Z,15.50
2023-01-05T05:16:42.773Z,14.21
2023-01-05T05:19:13.529Z,14.44
2023-01-05T05:21:44.788Z,15.13
2023-01-05T05:24:15.769Z,15.07
2023-01-05T05:26:48.132Z,14.49
2023-01-05T05:29:18.985Z,14.59
2023-01-05T05:31:49.785Z,14.97
2023-01-05T05:34:20.337Z,15.15
2023-01-05T05:36:51.124Z,15.00
2023-01-05T05:39:21.638Z,14.65
2023-01-05T05:41:52.745Z,14.62
2023-01-05T05:44:23.281Z,15.07
2023-01-05T05:46:54.206Z,14.18
2023-01-05T05:49:24.673Z,14.71
2023-01-05T05:51:55.301Z,14.75
2023-01-05T05:54:25.700Z,15.00
2023-01-05T05:56:56.850Z,14.91
2023-01-05T05:59:27.329Z,14.89
2023-01-05T06:01:58.465Z,14.60
2023-01-05T06:04:29.094Z,14.45
2023-01-05T06:06:59.971Z,14.37
2023-01-05T06:09:30.464Z,14.66
2023-01-05T06:12:01.337Z,14.09
2023-01-05T06:14:31.934Z,14.79
2023-01-05T06:17:03.017Z,14.62
2023-01-05T06:19:33.529Z,14.95
2023-01-05T06:22:04.308Z,15.21
2023-01-05T06:24:34.700Z,15.26
2023-01-05T06:27:05.629Z,15.54
2023-01-05T06:29:36.300Z,15.24
2023-01-05T06:32:07.437Z,15.06
2023-01-05T06:34:37.840Z,15.26
2023-01-05T06:37:08.792Z,15.19
2023-01-05T06:39:39.246Z,15.27
2023-01-05T06:42:10.612Z,15.34
2023-01-05T06:44:42.689Z,14.98
2023-01-05T06:47:13.578Z,14.95
2023-01-05T06:49:44.032Z,15.49
2023-01-05T06:52:16.802Z,14.53
2023-01-05T06:54:47.504Z,14.49
2023-01-05T06:57:18.618Z,14.44
2023-01-05T06:59:49.054Z,14.82
2023-01-05T07:02:20.046Z,15.18
2023-01-05T07:04:50.620Z,14.70
2023-01-05T07:07:21.330Z,13.54
2023-01-05T07:09:51.892Z,14.40
2023-01-05T07:12:23.049Z,14.65
2023-01-05T07:14:57.442Z,15.10
2023-01-05T07:17:28.651Z,15.86
2023-01-05T07:19:59.118Z,14.48
2023-01-05T07:22:31.174Z,14.28
2023-01-05T07:25:01.652Z,14.52
2023-01-05T07:27:33.151Z,14.49
2023-01-05T07:30:04.243Z,13.06
2023-01-05T07:32:35.050Z,12.63
2023-01-05T07:35:06.048Z,13.24
2023-01-05T07:37:36.807Z,13.42
2023-01-05T07:40:08.545Z,12.07
2023-01-05T07:42:39.320Z,12.63
2023-01-05T07:45:13.404Z,12.69
2023-01-05T07:47:44.395Z,12.70
2023-01-05T07:50:15.091Z,13.09
2023-01-05T07:52:45.977Z,13.75
2023-01-05T07:55:16.598Z,13.49
2023-01-05T07:57:47.707Z,13.84
2023-01-05T08:00:18.612Z,13.35
2023-01-05T08:02:49.288Z,13.36
2023-01-05T08:05:20.802Z,13.65
2023-01-05T08:07:51.546Z,13.32
2023-01-05T08:10:31.153Z,14.39
2023-01-05T08:13:23.462Z,14.02
2023-01-05T08:15:54.501Z,13.97
2023-01-05T08:18:25.579Z,14.24
2023-01-05T08:20:57.121Z,14.45
2023-01-05T08:23:29.131Z,14.04
2023-01-05T08:26:04.248Z,14.03
2023-01-05T08:28:36.197Z,14.46
2023-01-05T08:31:08.244Z,14.16
2023-01-05T08:33:38.932Z,14.56
2023-01-05T08:36:11.461Z,14.11
2023-01-05T08:38:48.729Z,14.39
2023-01-05T08:41:21.970Z,13.95
2023-01-05T08:43:52.926Z,13.80
2023-01-05T08:46:24.871Z,13.81
2023-01-05T08:48:56.932Z,14.24
2023-01-05T08:51:27.876Z,14.07
2023-01-05T08:53:59.042Z,13.66
2023-01-05T08:56:34.667Z,14.08
2023-01-05T08:59:10.250Z,14.30
2023-01-05T09:01:40.801Z,14.20
2023-01-05T09:04:11.958Z,13.97
2023-01-05T09:06:42.633Z,14.16
2023-01-05T09:09:13.476Z,13.54
2023-01-05T09:11:43.974Z,14.24
2023-01-05T09:14:16.107Z,14.23
2023-01-05T09:17:06.508Z,14.40
2023-01-05T09:19:37.646Z,13.99
2023-01-05T09:22:08.320Z,14.09
2023-01-05T09:24:39.424Z,14.28
2023-01-05T09:27:09.978Z,13.98
2023-01-05T09:29:40.917Z,14.21
2023-01-05T09:32:11.698Z,13.91
2023-01-05T09:34:42.882Z,13.90
2023-01-05T09:37:13.323Z,14.00
2023-01-05T09:39:44.648Z,14.47
2023-01-05T09:42:17.403Z,14.40
2023-01-05T09:44:54.059Z,14.47
2023-01-05T09:47:31.978Z,13.47
2023-01-05T09:50:01.087Z,14.53
2023-01-05T09:52:37.801Z,14.25
2023-01-05T09:55:15.598Z,14.91
2023-01-05T09:57:54.727Z,14.53
2023-01-05T10:00:26.813Z,14.74
2023-01-05T10:02:59.014Z,14.93
2023-01-05T10:05:30.305Z,14.79
2023-01-05T10:08:02.771Z,14.68
2023-01-05T10:10:42.917Z,15.02
2023-01-05T10:13:23.039Z,15.09
2023-01-05T10:15:54.876Z,13.69
2023-01-05T10:18:27.300Z,14.04
2023-01-05T10:21:02.989Z,13.57
2023-01-05T10:23:42.091Z,14.27
2023-01-05T10:26:16.149Z,14.35
2023-01-05T10:28:51.842Z,14.71
2023-01-05T10:31:26.501Z,14.71
2023-01-05T10:34:05.415Z,14.95
2023-01-05T10:39:56.807Z,14.36
2023-01-05T10:42:33.657Z,14.68
2023-01-05T10:45:04.923Z,15.23
2023-01-05T10:47:37.833Z,13.98
2023-01-05T10:50:19.327Z,13.81
2023-01-05T10:52:50.509Z,14.55
2023-01-05T10:55:21.684Z,13.61
2023-01-05T10:57:52.448Z,14.18
2023-01-05T11:00:40.139Z,14.19
2023-01-05T11:03:14.615Z,14.39
2023-01-05T11:05:47.008Z,13.82
2023-01-05T11:08:19.045Z,13.85
2023-01-05T11:10:54.122Z,14.91
2023-01-05T11:13:29.346Z,13.87
2023-01-05T11:16:01.121Z,13.75
2023-01-05T11:18:35.446Z,14.53
2023-01-05T11:21:22.438Z,14.71
2023-01-05T11:23:53.770Z,13.45
2023-01-05T11:26:34.949Z,14.34
2023-01-05T11:29:13.439Z,14.72
2023-01-05T11:31:54.675Z,13.85
2023-01-05T11:34:37.956Z,13.45
2023-01-05T11:37:14.783Z,15.03
2023-01-05T11:39:50.694Z,13.86
2023-01-05T11:42:25.628Z,13.73
2023-01-05T11:44:58.621Z,13.93
2023-01-05T11:47:30.818Z,14.65
2023-01-05T11:50:09.739Z,15.25
2023-01-05T11:52:41.508Z,13.66
2023-01-05T11:55:35.666Z,14.03
2023-01-05T11:58:22.916Z,14.04
2023-01-05T12:01:03.429Z,13.92
2023-01-05T12:04:01.340Z,14.39
2023-01-05T12:06:52.136Z,12.83
2023-01-05T12:09:29.778Z,14.51
2023-01-05T12:12:18.371Z,14.02
2023-01-05T12:15:01.279Z,14.43
2023-01-05T12:17:35.575Z,14.68
2023-01-05T12:20:28.830Z,14.73
2023-01-05T12:23:14.432Z,14.78
2023-01-05T12:40:30.110Z,14.14
2023-01-05T12:43:02.223Z,14.07
2023-01-05T12:45:39.274Z,14.46
2023-01-05T12:48:12.273Z,14.71
2023-01-05T12:50:45.086Z,15.05
2023-01-05T12:53:18.319Z,14.74
2023-01-05T12:55:51.523Z,14.10
2023-01-05T12:58:25.064Z,14.68
2023-01-05T13:00:57.957Z,13.98
2023-01-05T13:03:32.077Z,13.90
2023-01-05T13:06:06.516Z,14.34
2023-01-05T13:08:39.920Z,14.41
2023-01-05T13:11:08.992Z,14.51
2023-01-05T13:13:41.277Z,14.13
2023-01-05T13:16:14.175Z,15.11
2023-01-05T13:18:48.950Z,15.31
2023-01-05T13:21:20.548Z,15.14
2023-01-05T13:23:52.824Z,15.46
2023-01-05T13:26:23.892Z,13.80
2023-01-05T13:28:55.634Z,13.62
2023-01-05T13:31:43.938Z,14.05
2023-01-05T13:34:20.245Z,15.08
2023-01-05T13:37:04.435Z,14.77
2023-01-05T13:39:43.992Z,14.51
2023-01-05T13:42:27.249Z,15.16
2023-01-05T13:45:13.901Z,13.91
2023-01-05T13:47:53.850Z,13.78
2023-01-05T13:50:43.044Z,13.86
2023-01-05T13:53:16.044Z,11.92
2023-01-05T13:55:49.465Z,11.75
2023-01-05T13:58:18.916Z,12.49
2023-01-05T14:00:52.254Z,13.12
2023-01-05T14:03:21.435Z,13.30
2023-01-05T14:05:53.075Z,13.39
2023-01-05T14:08:27.169Z,13.35
2023-01-05T14:11:12.090Z,13.11
2023-01-05T14:13:47.926Z,12.57
2023-01-05T14:16:35.739Z,12.46
2023-01-05T14:19:14.768Z,12.43
2023-01-05T14:22:02.577Z,11.90
2023-01-05T14:24:36.757Z,11.59
2023-01-05T14:27:09.518Z,11.24
2023-01-05T14:30:08.874Z,11.52
2023-01-05T14:32:40.323Z,11.49
2023-01-05T14:35:23.075Z,11.56
2023-01-05T14:37:54.727Z,11.66
2023-01-05T14:40:32.867Z,11.85
2023-01-05T14:43:05.539Z,11.92
2023-01-05T14:45:38.408Z,11.74
2023-01-05T14:48:28.036Z,11.67
2023-01-05T14:51:15.016Z,12.17
2023-01-05T14:53:46.293Z,11.66
2023-01-05T14:56:18.045Z,12.06
2023-01-05T14:59:11.310Z,11.68
2023-01-05T15:01:47.145Z,11.93
2023-01-05T15:04:20.065Z,11.97
2023-01-05T15:07:01.786Z,11.67
2023-01-05T15:09:59.300Z,12.07
2023-01-05T15:12:50.828Z,11.98
2023-01-05T15:15:41.960Z,12.24
2023-01-05T15:21:13.724Z,12.38
2023-01-05T15:24:02.616Z,11.95
2023-01-05T15:26:42.374Z,12.74
2023-01-05T15:29:35.407Z,12.48
2023-01-05T15:32:08.453Z,12.69
2023-01-05T15:34:42.136Z,12.64
2023-01-05T15:37:15.481Z,12.64
2023-01-05T15:39:49.909Z,12.69
2023-01-05T15:42:23.340Z,12.73
2023-01-05T15:44:55.778Z,13.11
2023-01-05T15:47:28.857Z,13.30
2023-01-05T15:50:01.125Z,12.79
2023-01-05T15:52:33.542Z,12.82
2023-01-05T15:55:06.006Z,13.02
2023-01-05T15:57:36.670Z,12.64
2023-01-05T16:00:18.161Z,12.31
2023-01-05T16:02:48.628Z,12.96
2023-01-05T16:05:20.061Z,12.15
2023-01-05T16:07:53.345Z,12.35
2023-01-05T16:10:27.235Z,12.86
2023-01-05T16:13:00.227Z,12.60
2023-01-05T16:15:32.441Z,12.99
2023-01-05T16:18:03.838Z,12.96
2023-01-05T16:20:35.552Z,12.93
2023-01-05T16:23:09.165Z,13.38
2023-01-05T16:25:41.440Z,13.15
2023-01-05T16:28:17.151Z,12.78
2023-01-05T16:30:48.463Z,12.69
2023-01-05T16:33:30.509Z,13.61
2023-01-05T16:36:13.443Z,13.06
2023-01-05T16:38:44.110Z,13.44
2023-01-05T16:41:22.950Z,13.41
2023-01-05T16:43:55.339Z,13.91
2023-01-05T16:46:31.175Z,13.94
2023-01-05T16:49:05.057Z,13.89
2023-01-05T16:51:40.049Z,13.73
2023-01-05T16:54:14.993Z,13.80
2023-01-05T16:56:58.519Z,13.66
2023-01-05T16:59:27.649Z,13.48
2023-01-05T17:01:58.515Z,13.29
2023-01-05T17:04:29.515Z,13.13
2023-01-05T17:07:01.569Z,12.86
2023-01-05T17:09:33.655Z,12.71
2023-01-05T17:12:05.471Z,12.82
2023-01-05T17:14:36.472Z,12.80
2023-01-05T17:17:07.408Z,12.88
2023-01-05T17:19:38.236Z,12.56
2023-01-05T17:22:11.692Z,13.04
2023-01-05T17:24:43.417Z,13.30
2023-01-05T17:27:14.289Z,13.22
2023-01-05T17:29:44.995Z,13.06
2023-01-05T17:32:15.814Z,13.33
2023-01-05T17:34:46.723Z,12.99
2023-01-05T17:37:17.998Z,13.05
2023-01-05T17:39:48.714Z,13.29
2023-01-05T17:42:36.971Z,12.97
2023-01-05T17:45:08.572Z,13.11
2023-01-05T17:47:39.693Z,13.18
2023-01-05T17:50:13.195Z,13.24
2023-01-05T17:52:43.980Z,13.18
2023-01-05T17:55:14.624Z,12.84
2023-01-05T17:57:45.664Z,13.36
2023-01-05T18:00:19.542Z,13.29
2023-01-05T18:02:53.293Z,12.70
2023-01-05T18:05:24.199Z,12.59
2023-01-05T18:07:55.050Z,13.29
2023-01-05T18:10:28.197Z,12.80
2023-01-05T18:12:59.906Z,12.58
2023-01-05T18:15:30.727Z,12.87
2023-01-05T18:18:01.968Z,12.97
2023-01-05T18:20:32.602Z,12.97
2023-01-05T18:23:03.226Z,12.88
2023-01-05T18:25:34.149Z,12.68
2023-01-05T18:28:04.978Z,12.54
2023-01-05T18:30:36.303Z,12.78
2023-01-05T18:33:07.092Z,13.00
2023-01-05T18:35:43.406Z,13.31
2023-01-05T18:38:14.517Z,13.22
2023-01-05T18:40:49.939Z,12.96
2023-01-05T18:43:21.578Z,12.72
2023-01-05T18:45:56.798Z,13.02
2023-01-05T18:48:28.073Z,12.83
2023-01-05T18:50:58.633Z,13.23
2023-01-05T18:53:29.348Z,13.02
2023-01-05T18:56:00.191Z,13.20
2023-01-05T18:58:31.480Z,13.29
2023-01-05T19:01:02.055Z,13.14
2023-01-05T19:03:32.834Z,13.19
2023-01-05T19:06:07.020Z,13.26
2023-01-05T19:08:37.890Z,13.05
2023-01-05T19:11:15.632Z,12.34
2023-01-05T19:13:47.449Z,12.91
2023-01-05T19:16:18.471Z,13.25
2023-01-05T19:18:51.422Z,12.79
2023-01-05T19:21:22.462Z,13.17
2023-01-05T19:23:57.493Z,13.56
2023-01-05T19:26:31.612Z,12.74
2023-01-05T19:29:03.244Z,13.27
2023-01-05T19:31:34.584Z,13.34
2023-01-05T19:34:06.246Z,13.10
2023-01-05T19:36:37.107Z,11.60
2023-01-05T19:39:09.817Z,11.95
2023-01-05T19:41:41.104Z,12.53
2023-01-05T19:44:13.528Z,12.88
2023-01-05T19:46:44.510Z,12.79
2023-01-05T19:49:17.045Z,12.97
2023-01-05T19:51:47.841Z,12.94
2023-01-05T19:54:19.407Z,13.12
2023-01-05T19:56:49.900Z,13.10
2023-01-05T19:59:23.051Z,11.79
2023-01-05T20:01:54.979Z,12.55
2023-01-05T20:04:26.013Z,12.76
2023-01-05T20:06:56.506Z,12.77
2023-01-05T20:09:27.265Z,12.86
2023-01-05T20:12:12.685Z,12.86
2023-01-05T20:14:44.891Z,13.09
2023-01-05T20:17:15.799Z,12.95
2023-01-05T20:19:46.557Z,13.08
2023-01-05T20:22:17.252Z,12.82
2023-01-05T20:24:47.995Z,12.91
2023-01-05T20:27:19.129Z,12.33
2023-01-05T20:29:49.957Z,12.70
2023-01-05T20:32:21.631Z,12.58
2023-01-05T20:34:55.023Z,12.56
2023-01-05T20:37:25.494Z,12.49
2023-01-05T20:39:57.984Z,12.36
2023-01-05T20:42:28.805Z,12.36
2023-01-05T20:45:01.757Z,12.03
2023-01-05T20:47:43.301Z,12.01
2023-01-05T20:50:17.899Z,12.32
2023-01-05T20:52:48.390Z,12.19
2023-01-05T20:55:19.542Z,11.83
2023-01-05T20:57:51.024Z,11.86
2023-01-05T21:00:21.837Z,11.83
2023-01-05T21:02:52.384Z,11.43
2023-01-05T21:05:23.026Z,11.48
2023-01-05T21:07:53.596Z,11.43
2023-01-05T21:10:24.291Z,11.70
2023-01-05T21:12:54.927Z,11.76
2023-01-05T21:15:46.014Z,11.18
2023-01-05T21:18:16.658Z,11.02
2023-01-05T21:20:47.425Z,11.42
2023-01-05T21:23:18.459Z,11.03
2023-01-05T21:26:06.641Z,11.23
2023-01-05T21:28:39.192Z,11.08
2023-01-05T21:31:10.944Z,10.95
2023-01-05T21:33:41.700Z,11.40
2023-01-05T21:36:15.073Z,11.27
2023-01-05T21:39:02.492Z,10.86
2023-01-05T21:41:52.341Z,11.10
2023-01-05T21:44:24.283Z,11.24
2023-01-05T21:46:55.332Z,10.58
2023-01-05T21:49:26.115Z,10.93
2023-01-05T21:52:10.766Z,10.70
2023-01-05T21:54:59.073Z,10.57
2023-01-05T21:57:29.964Z,11.04
2023-01-05T22:00:00.577Z,10.47
2023-01-05T22:02:31.419Z,10.57
2023-01-05T22:05:02.019Z,10.69
2023-01-05T22:07:32.725Z,10.41
2023-01-05T22:10:03.244Z,10.79
2023-01-05T22:12:36.157Z,10.47
2023-01-05T22:15:07.641Z,10.55
2023-01-05T22:17:38.498Z,10.69
2023-01-05T22:20:09.987Z,10.69
2023-01-05T22:22:40.729Z,10.64
2023-01-05T22:25:11.670Z,10.56
2023-01-05T22:27:42.557Z,10.86
2023-01-05T22:30:14.045Z,10.62
2023-01-05T22:32:44.734Z,10.64
2023-01-05T22:35:15.411Z,10.93
2023-01-05T22:37:46.549Z,11.14
2023-01-05T22:40:17.257Z,10.92
2023-01-05T22:42:48.053Z,11.34
2023-01-05T22:45:18.754Z,11.21
2023-01-05T22:47:49.479Z,10.81
2023-01-05T22:50:20.124Z,10.92
2023-01-05T22:52:51.113Z,10.98
2023-01-05T22:55:21.638Z,10.41
2023-01-05T22:57:52.429Z,11.01
2023-01-05T23:00:23.084Z,10.91
2023-01-05T23:02:54.872Z,11.22
2023-01-05T23:05:25.443Z,10.99
2023-01-05T23:07:56.472Z,10.54
2023-01-05T23:10:27.895Z,10.87
2023-01-05T23:12:58.861Z,10.94
2023-01-05T23:15:29.356Z,11.03
2023-01-05T23:18:00.483Z,11.03
2023-01-05T23:20:31.177Z,10.89
2023-01-05T23:23:13.799Z,10.71
2023-01-05T23:25:46.075Z,10.95
2023-01-05T23:28:18.333Z,10.90
2023-01-05T23:30:50.071Z,10.66
2023-01-05T23:33:21.736Z,10.86
2023-01-05T23:35:53.115Z,11.25
2023-01-05T23:38:24.355Z,11.35
2023-01-05T23:40:55.371Z,11.22
2023-01-05T23:43:27.288Z,11.14
2023-01-05T23:46:02.074Z,11.06
2023-01-05T23:48:34.728Z,10.91
2023-01-05T23:51:06.185Z,10.61
2023-01-05T23:53:37.467Z,11.08
2023-01-05T23:56:09.076Z,11.05
2023-01-05T23:58:40.330Z,11.37
